sensor_id;sensor_type;location;lat;lon;timestamp;P1;durP1;ratioP1;P2;durP2;ratioP2
462;SDS011;218;51.902;9.542;2022-09-09T00:01:24;2.33;;;2.23;;
462;SDS011;218;51.902;9.542;2022-09-09T00:04:03;2.03;;;1.80;;
462;SDS011;218;51.902;9.542;2022-09-09T00:06:42;1.93;;;1.93;;
462;SDS011;218;51.902;9.542;2022-09-09T00:09:12;1.97;;;1.87;;
462;SDS011;218;51.902;9.542;2022-09-09T00:11:43;1.70;;;1.70;;
462;SDS011;218;51.902;9.542;2022-09-09T00:14:15;2.13;;;2.03;;
462;SDS011;218;51.902;9.542;2022-09-09T00:16:49;2.10;;;2.07;;
462;SDS011;218;51.902;9.542;2022-09-09T00:19:22;2.17;;;2.07;;
462;SDS011;218;51.902;9.542;2022-09-09T00:22:00;1.93;;;1.83;;
462;SDS011;218;51.902;9.542;2022-09-09T00:24:41;1.80;;;1.80;;
462;SDS011;218;51.902;9.542;2022-09-09T00:27:11;2.97;;;2.17;;
462;SDS011;218;51.902;9.542;2022-09-09T00:29:45;1.97;;;1.87;;
462;SDS011;218;51.902;9.542;2022-09-09T00:32:27;1.77;;;1.73;;
462;SDS011;218;51.902;9.542;2022-09-09T00:34:58;1.67;;;1.67;;
462;SDS011;218;51.902;9.542;2022-09-09T00:37:30;2.10;;;2.00;;
462;SDS011;218;51.902;9.542;2022-09-09T00:39:59;5.83;;;1.97;;
462;SDS011;218;51.902;9.542;2022-09-09T00:42:31;2.03;;;1.93;;
462;SDS011;218;51.902;9.542;2022-09-09T00:45:10;1.87;;;1.77;;
462;SDS011;218;51.902;9.542;2022-09-09T00:47:46;2.00;;;1.90;;
462;SDS011;218;51.902;9.542;2022-09-09T00:50:28;1.93;;;1.83;;
462;SDS011;218;51.902;9.542;2022-09-09T00:53:11;1.97;;;1.90;;
462;SDS011;218;51.902;9.542;2022-09-09T00:55:57;1.80;;;1.80;;
462;SDS011;218;51.902;9.542;2022-09-09T00:58:30;1.70;;;1.70;;
462;SDS011;218;51.902;9.542;2022-09-09T01:00:58;2.23;;;2.13;;
462;SDS011;218;51.902;9.542;2022-09-09T01:03:33;2.10;;;2.00;;
462;SDS011;218;51.902;9.542;2022-09-09T01:06:11;2.00;;;2.00;;
462;SDS011;218;51.902;9.542;2022-09-09T01:11:37;1.80;;;1.70;;
462;SDS011;218;51.902;9.542;2022-09-09T01:14:32;1.90;;;1.80;;
462;SDS011;218;51.902;9.542;2022-09-09T01:17:16;1.90;;;1.80;;
462;SDS011;218;51.902;9.542;2022-09-09T01:19:55;1.87;;;1.77;;
462;SDS011;218;51.902;9.542;2022-09-09T01:22:34;2.03;;;1.93;;
462;SDS011;218;51.902;9.542;2022-09-09T01:25:13;2.00;;;1.90;;
462;SDS011;218;51.902;9.542;2022-09-09T01:27:52;1.73;;;1.63;;
462;SDS011;218;51.902;9.542;2022-09-09T01:30:22;2.93;;;2.17;;
462;SDS011;218;51.902;9.542;2022-09-09T01:32:50;2.17;;;2.07;;
462;SDS011;218;51.902;9.542;2022-09-09T01:35:23;1.80;;;1.80;;
462;SDS011;218;51.902;9.542;2022-09-09T01:37:58;2.10;;;2.00;;
462;SDS011;218;51.902;9.542;2022-09-09T01:40:26;2.10;;;2.00;;
462;SDS011;218;51.902;9.542;2022-09-09T01:42:54;2.50;;;2.40;;
462;SDS011;218;51.902;9.542;2022-09-09T01:45:22;2.27;;;2.17;;
462;SDS011;218;51.902;9.542;2022-09-09T01:47:51;2.30;;;2.20;;
462;SDS011;218;51.902;9.542;2022-09-09T01:50:18;1.97;;;1.80;;
462;SDS011;218;51.902;9.542;2022-09-09T01:52:47;2.07;;;1.97;;
462;SDS011;218;51.902;9.542;2022-09-09T01:55:18;1.83;;;1.73;;
462;SDS011;218;51.902;9.542;2022-09-09T01:57:56;1.90;;;1.80;;
462;SDS011;218;51.902;9.542;2022-09-09T02:00:44;3.00;;;2.80;;
462;SDS011;218;51.902;9.542;2022-09-09T02:03:20;2.27;;;2.17;;
462;SDS011;218;51.902;9.542;2022-09-09T02:05:52;2.07;;;1.90;;
462;SDS011;218;51.902;9.542;2022-09-09T02:08:38;2.00;;;1.90;;
462;SDS011;218;51.902;9.542;2022-09-09T02:11:11;2.20;;;2.00;;
462;SDS011;218;51.902;9.542;2022-09-09T02:13:41;2.17;;;2.07;;
462;SDS011;218;51.902;9.542;2022-09-09T02:16:11;2.07;;;1.97;;
462;SDS011;218;51.902;9.542;2022-09-09T02:18:44;1.97;;;1.87;;
462;SDS011;218;51.902;9.542;2022-09-09T02:21:15;2.87;;;2.77;;
462;SDS011;218;51.902;9.542;2022-09-09T02:23:43;2.83;;;2.53;;
462;SDS011;218;51.902;9.542;2022-09-09T02:26:17;2.47;;;2.37;;
462;SDS011;218;51.902;9.542;2022-09-09T02:28:49;2.33;;;2.23;;
462;SDS011;218;51.902;9.542;2022-09-09T02:31:17;2.00;;;2.00;;
462;SDS011;218;51.902;9.542;2022-09-09T02:33:49;2.10;;;2.00;;
462;SDS011;218;51.902;9.542;2022-09-09T02:36:19;2.03;;;1.93;;
462;SDS011;218;51.902;9.542;2022-09-09T02:38:48;1.87;;;1.87;;
462;SDS011;218;51.902;9.542;2022-09-09T02:41:18;2.10;;;2.00;;
462;SDS011;218;51.902;9.542;2022-09-09T02:46:56;2.30;;;2.20;;
462;SDS011;218;51.902;9.542;2022-09-09T02:49:41;2.07;;;1.97;;
462;SDS011;218;51.902;9.542;2022-09-09T02:52:18;2.23;;;2.13;;
462;SDS011;218;51.902;9.542;2022-09-09T02:54:52;1.90;;;1.90;;
462;SDS011;218;51.902;9.542;2022-09-09T02:57:27;2.10;;;2.00;;
462;SDS011;218;51.902;9.542;2022-09-09T02:59:58;3.63;;;2.20;;
462;SDS011;218;51.902;9.542;2022-09-09T03:02:25;2.23;;;2.10;;
462;SDS011;218;51.902;9.542;2022-09-09T03:04:52;2.27;;;2.10;;
462;SDS011;218;51.902;9.542;2022-09-09T03:07:19;1.97;;;1.87;;
462;SDS011;218;51.902;9.542;2022-09-09T03:09:47;2.40;;;2.20;;
462;SDS011;218;51.902;9.542;2022-09-09T03:12:14;2.10;;;2.00;;
462;SDS011;218;51.902;9.542;2022-09-09T03:14:41;2.30;;;2.20;;
462;SDS011;218;51.902;9.542;2022-09-09T03:17:11;2.83;;;2.63;;
462;SDS011;218;51.902;9.542;2022-09-09T03:19:38;2.60;;;2.50;;
462;SDS011;218;51.902;9.542;2022-09-09T03:22:06;2.43;;;2.33;;
462;SDS011;218;51.902;9.542;2022-09-09T03:24:35;2.40;;;2.30;;
462;SDS011;218;51.902;9.542;2022-09-09T03:27:02;2.10;;;2.00;;
462;SDS011;218;51.902;9.542;2022-09-09T03:29:29;2.20;;;2.10;;
462;SDS011;218;51.902;9.542;2022-09-09T03:31:56;2.33;;;2.20;;
462;SDS011;218;51.902;9.542;2022-09-09T03:34:24;2.33;;;2.23;;
462;SDS011;218;51.902;9.542;2022-09-09T03:36:51;1.97;;;1.87;;
462;SDS011;218;51.902;9.542;2022-09-09T03:39:18;2.20;;;2.10;;
462;SDS011;218;51.902;9.542;2022-09-09T03:41:45;2.30;;;2.20;;
462;SDS011;218;51.902;9.542;2022-09-09T03:44:13;2.50;;;2.40;;
462;SDS011;218;51.902;9.542;2022-09-09T03:46:40;2.17;;;2.07;;
462;SDS011;218;51.902;9.542;2022-09-09T03:49:08;2.33;;;2.13;;
462;SDS011;218;51.902;9.542;2022-09-09T03:51:37;2.20;;;2.10;;
462;SDS011;218;51.902;9.542;2022-09-09T03:54:17;2.60;;;2.50;;
462;SDS011;218;51.902;9.542;2022-09-09T03:56:44;2.30;;;2.20;;
462;SDS011;218;51.902;9.542;2022-09-09T03:59:11;2.10;;;2.00;;
462;SDS011;218;51.902;9.542;2022-09-09T04:01:39;2.30;;;2.20;;
462;SDS011;218;51.902;9.542;2022-09-09T04:04:06;2.17;;;2.07;;
462;SDS011;218;51.902;9.542;2022-09-09T04:06:34;2.20;;;2.10;;
462;SDS011;218;51.902;9.542;2022-09-09T04:09:02;2.30;;;2.20;;
462;SDS011;218;51.902;9.542;2022-09-09T04:11:29;2.33;;;2.23;;
462;SDS011;218;51.902;9.542;2022-09-09T04:13:56;2.70;;;2.60;;
462;SDS011;218;51.902;9.542;2022-09-09T04:16:23;2.40;;;2.30;;
462;SDS011;218;51.902;9.542;2022-09-09T04:18:50;2.77;;;2.57;;
462;SDS011;218;51.902;9.542;2022-09-09T04:21:18;2.87;;;2.67;;
462;SDS011;218;51.902;9.542;2022-09-09T04:23:45;2.60;;;2.50;;
462;SDS011;218;51.902;9.542;2022-09-09T04:26:13;2.93;;;2.73;;
462;SDS011;218;51.902;9.542;2022-09-09T04:28:40;3.23;;;2.70;;
462;SDS011;218;51.902;9.542;2022-09-09T04:31:08;2.80;;;2.50;;
462;SDS011;218;51.902;9.542;2022-09-09T04:33:36;2.20;;;2.10;;
462;SDS011;218;51.902;9.542;2022-09-09T04:36:04;2.93;;;2.43;;
462;SDS011;218;51.902;9.542;2022-09-09T04:38:32;2.33;;;2.23;;
462;SDS011;218;51.902;9.542;2022-09-09T04:41:00;2.57;;;2.40;;
462;SDS011;218;51.902;9.542;2022-09-09T04:43:28;2.40;;;2.30;;
462;SDS011;218;51.902;9.542;2022-09-09T04:45:56;2.10;;;2.00;;
462;SDS011;218;51.902;9.542;2022-09-09T04:48:24;2.47;;;2.27;;
462;SDS011;218;51.902;9.542;2022-09-09T04:50:55;2.30;;;2.20;;
462;SDS011;218;51.902;9.542;2022-09-09T04:53:23;2.50;;;2.40;;
462;SDS011;218;51.902;9.542;2022-09-09T04:55:51;2.63;;;2.53;;
462;SDS011;218;51.902;9.542;2022-09-09T04:58:18;2.60;;;2.50;;
462;SDS011;218;51.902;9.542;2022-09-09T05:00:48;2.50;;;2.40;;
462;SDS011;218;51.902;9.542;2022-09-09T05:03:16;2.67;;;2.53;;
462;SDS011;218;51.902;9.542;2022-09-09T05:05:44;2.20;;;2.10;;
462;SDS011;218;51.902;9.542;2022-09-09T05:08:11;2.67;;;2.57;;
462;SDS011;218;51.902;9.542;2022-09-09T05:10:38;2.40;;;2.30;;
462;SDS011;218;51.902;9.542;2022-09-09T05:13:07;2.13;;;2.03;;
462;SDS011;218;51.902;9.542;2022-09-09T05:15:34;2.20;;;2.10;;
462;SDS011;218;51.902;9.542;2022-09-09T05:18:02;2.57;;;2.47;;
462;SDS011;218;51.902;9.542;2022-09-09T05:20:29;2.40;;;2.30;;
462;SDS011;218;51.902;9.542;2022-09-09T05:22:57;2.70;;;2.50;;
462;SDS011;218;51.902;9.542;2022-09-09T05:25:24;2.90;;;2.70;;
462;SDS011;218;51.902;9.542;2022-09-09T05:27:52;3.20;;;3.00;;
462;SDS011;218;51.902;9.542;2022-09-09T05:30:19;2.53;;;2.43;;
462;SDS011;218;51.902;9.542;2022-09-09T05:32:47;2.30;;;2.20;;
462;SDS011;218;51.902;9.542;2022-09-09T05:35:16;2.50;;;2.33;;
462;SDS011;218;51.902;9.542;2022-09-09T05:37:44;2.47;;;2.37;;
462;SDS011;218;51.902;9.542;2022-09-09T05:40:11;2.43;;;2.33;;
462;SDS011;218;51.902;9.542;2022-09-09T05:42:38;2.37;;;2.27;;
462;SDS011;218;51.902;9.542;2022-09-09T05:45:09;2.80;;;2.10;;
462;SDS011;218;51.902;9.542;2022-09-09T05:47:52;2.23;;;2.13;;
462;SDS011;218;51.902;9.542;2022-09-09T05:50:21;2.80;;;2.60;;
462;SDS011;218;51.902;9.542;2022-09-09T05:52:48;2.80;;;2.60;;
462;SDS011;218;51.902;9.542;2022-09-09T05:55:15;3.30;;;2.40;;
462;SDS011;218;51.902;9.542;2022-09-09T05:57:47;2.93;;;2.47;;
462;SDS011;218;51.902;9.542;2022-09-09T06:00:17;2.53;;;2.33;;
462;SDS011;218;51.902;9.542;2022-09-09T06:02:49;2.33;;;2.23;;
462;SDS011;218;51.902;9.542;2022-09-09T06:05:17;3.00;;;2.70;;
462;SDS011;218;51.902;9.542;2022-09-09T06:07:45;2.40;;;2.30;;
462;SDS011;218;51.902;9.542;2022-09-09T06:10:12;2.47;;;2.37;;
462;SDS011;218;51.902;9.542;2022-09-09T06:12:39;2.23;;;2.10;;
462;SDS011;218;51.902;9.542;2022-09-09T06:15:07;2.30;;;2.20;;
462;SDS011;218;51.902;9.542;2022-09-09T06:17:34;2.40;;;2.30;;
462;SDS011;218;51.902;9.542;2022-09-09T06:20:02;2.63;;;2.43;;
462;SDS011;218;51.902;9.542;2022-09-09T06:22:29;2.70;;;2.50;;
462;SDS011;218;51.902;9.542;2022-09-09T06:24:57;2.67;;;2.50;;
462;SDS011;218;51.902;9.542;2022-09-09T06:27:26;5.60;;;2.83;;
462;SDS011;218;51.902;9.542;2022-09-09T06:29:54;2.13;;;2.03;;
462;SDS011;218;51.902;9.542;2022-09-09T06:32:22;2.63;;;2.53;;
462;SDS011;218;51.902;9.542;2022-09-09T06:35:02;2.80;;;2.60;;
462;SDS011;218;51.902;9.542;2022-09-09T06:37:30;2.60;;;2.50;;
462;SDS011;218;51.902;9.542;2022-09-09T06:39:58;2.43;;;2.33;;
462;SDS011;218;51.902;9.542;2022-09-09T06:42:25;2.90;;;2.80;;
462;SDS011;218;51.902;9.542;2022-09-09T06:44:52;2.67;;;2.57;;
462;SDS011;218;51.902;9.542;2022-09-09T06:47:19;2.77;;;2.57;;
462;SDS011;218;51.902;9.542;2022-09-09T06:49:46;2.90;;;2.70;;
462;SDS011;218;51.902;9.542;2022-09-09T06:52:13;2.80;;;2.67;;
462;SDS011;218;51.902;9.542;2022-09-09T06:54:40;3.70;;;3.40;;
462;SDS011;218;51.902;9.542;2022-09-09T06:57:08;4.03;;;3.23;;
462;SDS011;218;51.902;9.542;2022-09-09T06:59:35;2.67;;;2.50;;
462;SDS011;218;51.902;9.542;2022-09-09T07:02:02;2.80;;;2.70;;
462;SDS011;218;51.902;9.542;2022-09-09T07:04:29;3.00;;;2.80;;
462;SDS011;218;51.902;9.542;2022-09-09T07:06:56;3.27;;;2.97;;
462;SDS011;218;51.902;9.542;2022-09-09T07:09:23;2.50;;;2.30;;
462;SDS011;218;51.902;9.542;2022-09-09T07:11:52;3.37;;;3.07;;
462;SDS011;218;51.902;9.542;2022-09-09T07:14:20;4.93;;;2.90;;
462;SDS011;218;51.902;9.542;2022-09-09T07:16:47;3.70;;;2.83;;
462;SDS011;218;51.902;9.542;2022-09-09T07:19:14;3.23;;;3.03;;
462;SDS011;218;51.902;9.542;2022-09-09T07:21:42;3.77;;;2.90;;
462;SDS011;218;51.902;9.542;2022-09-09T07:24:09;2.47;;;2.37;;
462;SDS011;218;51.902;9.542;2022-09-09T07:26:37;2.90;;;2.70;;
462;SDS011;218;51.902;9.542;2022-09-09T07:29:05;2.53;;;2.40;;
462;SDS011;218;51.902;9.542;2022-09-09T07:31:34;3.13;;;2.83;;
462;SDS011;218;51.902;9.542;2022-09-09T07:34:02;2.83;;;2.63;;
462;SDS011;218;51.902;9.542;2022-09-09T07:36:31;4.40;;;2.70;;
462;SDS011;218;51.902;9.542;2022-09-09T07:38:59;3.37;;;3.17;;
462;SDS011;218;51.902;9.542;2022-09-09T07:51:48;2.60;;;2.40;;
462;SDS011;218;51.902;9.542;2022-09-09T07:54:22;2.30;;;2.20;;
462;SDS011;218;51.902;9.542;2022-09-09T07:56:51;2.63;;;2.43;;
462;SDS011;218;51.902;9.542;2022-09-09T07:59:21;3.63;;;2.97;;
462;SDS011;218;51.902;9.542;2022-09-09T08:01:50;2.67;;;2.47;;
462;SDS011;218;51.902;9.542;2022-09-09T08:04:20;3.17;;;2.27;;
462;SDS011;218;51.902;9.542;2022-09-09T08:06:50;3.57;;;3.27;;
462;SDS011;218;51.902;9.542;2022-09-09T08:09:18;2.80;;;2.40;;
462;SDS011;218;51.902;9.542;2022-09-09T08:11:45;2.70;;;2.50;;
462;SDS011;218;51.902;9.542;2022-09-09T08:14:13;3.40;;;2.80;;
462;SDS011;218;51.902;9.542;2022-09-09T08:16:43;1.90;;;1.80;;
462;SDS011;218;51.902;9.542;2022-09-09T08:19:18;2.40;;;2.30;;
462;SDS011;218;51.902;9.542;2022-09-09T08:21:45;2.10;;;1.90;;
462;SDS011;218;51.902;9.542;2022-09-09T08:24:15;2.23;;;2.00;;
462;SDS011;218;51.902;9.542;2022-09-09T08:26:45;2.73;;;2.30;;
462;SDS011;218;51.902;9.542;2022-09-09T08:29:14;2.30;;;2.10;;
462;SDS011;218;51.902;9.542;2022-09-09T08:31:42;2.47;;;2.27;;
462;SDS011;218;51.902;9.542;2022-09-09T08:34:09;3.10;;;2.77;;
462;SDS011;218;51.902;9.542;2022-09-09T08:36:37;3.00;;;2.80;;
462;SDS011;218;51.902;9.542;2022-09-09T08:39:07;2.23;;;2.03;;
462;SDS011;218;51.902;9.542;2022-09-09T08:44:34;2.40;;;2.20;;
462;SDS011;218;51.902;9.542;2022-09-09T08:47:14;2.10;;;1.90;;
462;SDS011;218;51.902;9.542;2022-09-09T08:49:56;2.10;;;1.90;;
462;SDS011;218;51.902;9.542;2022-09-09T08:52:32;1.60;;;1.50;;
462;SDS011;218;51.902;9.542;2022-09-09T08:55:11;2.50;;;2.10;;
462;SDS011;218;51.902;9.542;2022-09-09T08:57:48;1.90;;;1.70;;
462;SDS011;218;51.902;9.542;2022-09-09T09:00:17;2.87;;;1.80;;
462;SDS011;218;51.902;9.542;2022-09-09T09:02:46;1.80;;;1.70;;
462;SDS011;218;51.902;9.542;2022-09-09T09:05:22;1.53;;;1.43;;
462;SDS011;218;51.902;9.542;2022-09-09T09:07:59;1.70;;;1.60;;
462;SDS011;218;51.902;9.542;2022-09-09T09:10:39;2.60;;;1.13;;
462;SDS011;218;51.902;9.542;2022-09-09T09:13:15;2.57;;;1.73;;
462;SDS011;218;51.902;9.542;2022-09-09T09:15:46;1.83;;;1.73;;
462;SDS011;218;51.902;9.542;2022-09-09T09:18:18;2.33;;;1.70;;
462;SDS011;218;51.902;9.542;2022-09-09T09:20:49;1.70;;;1.60;;
462;SDS011;218;51.902;9.542;2022-09-09T09:23:21;1.93;;;1.77;;
462;SDS011;218;51.902;9.542;2022-09-09T09:25:50;1.50;;;1.40;;
462;SDS011;218;51.902;9.542;2022-09-09T09:28:25;2.03;;;1.60;;
462;SDS011;218;51.902;9.542;2022-09-09T09:30:54;2.27;;;1.70;;
462;SDS011;218;51.902;9.542;2022-09-09T09:33:25;3.93;;;1.40;;
462;SDS011;218;51.902;9.542;2022-09-09T09:35:57;1.90;;;1.63;;
462;SDS011;218;51.902;9.542;2022-09-09T09:38:25;1.63;;;1.53;;
462;SDS011;218;51.902;9.542;2022-09-09T09:40:53;2.07;;;1.90;;
462;SDS011;218;51.902;9.542;2022-09-09T09:43:26;2.37;;;1.83;;
462;SDS011;218;51.902;9.542;2022-09-09T09:45:55;2.00;;;1.90;;
462;SDS011;218;51.902;9.542;2022-09-09T09:48:23;2.00;;;1.77;;
462;SDS011;218;51.902;9.542;2022-09-09T09:50:51;3.83;;;1.90;;
462;SDS011;218;51.902;9.542;2022-09-09T09:53:21;2.10;;;1.70;;
462;SDS011;218;51.902;9.542;2022-09-09T09:55:53;1.60;;;1.50;;
462;SDS011;218;51.902;9.542;2022-09-09T09:58:29;1.63;;;1.53;;
462;SDS011;218;51.902;9.542;2022-09-09T10:00:59;2.10;;;1.97;;
462;SDS011;218;51.902;9.542;2022-09-09T10:03:28;2.17;;;1.73;;
462;SDS011;218;51.902;9.542;2022-09-09T10:05:55;1.60;;;1.40;;
462;SDS011;218;51.902;9.542;2022-09-09T10:08:23;1.90;;;1.47;;
462;SDS011;218;51.902;9.542;2022-09-09T10:10:54;2.93;;;1.70;;
462;SDS011;218;51.902;9.542;2022-09-09T10:13:33;2.03;;;1.87;;
462;SDS011;218;51.902;9.542;2022-09-09T10:16:17;1.53;;;1.33;;
462;SDS011;218;51.902;9.542;2022-09-09T10:18:57;1.83;;;1.73;;
462;SDS011;218;51.902;9.542;2022-09-09T10:21:37;1.77;;;1.63;;
462;SDS011;218;51.902;9.542;2022-09-09T10:27:22;1.80;;;1.70;;
462;SDS011;218;51.902;9.542;2022-09-09T10:30:02;2.07;;;1.83;;
462;SDS011;218;51.902;9.542;2022-09-09T10:32:37;2.00;;;1.57;;
462;SDS011;218;51.902;9.542;2022-09-09T10:35:09;2.20;;;1.97;;
462;SDS011;218;51.902;9.542;2022-09-09T10:37:47;1.70;;;1.60;;
462;SDS011;218;51.902;9.542;2022-09-09T10:40:27;1.90;;;1.80;;
462;SDS011;218;51.902;9.542;2022-09-09T10:43:01;1.83;;;1.53;;
462;SDS011;218;51.902;9.542;2022-09-09T10:45:43;2.80;;;1.60;;
462;SDS011;218;51.902;9.542;2022-09-09T10:48:24;1.27;;;1.17;;
462;SDS011;218;51.902;9.542;2022-09-09T10:51:00;1.50;;;1.40;;
462;SDS011;218;51.902;9.542;2022-09-09T10:53:43;2.53;;;1.70;;
462;SDS011;218;51.902;9.542;2022-09-09T10:56:15;4.30;;;2.40;;
462;SDS011;218;51.902;9.542;2022-09-09T10:58:46;2.13;;;1.93;;
462;SDS011;218;51.902;9.542;2022-09-09T11:01:20;3.30;;;1.70;;
462;SDS011;218;51.902;9.542;2022-09-09T11:03:52;2.10;;;1.90;;
462;SDS011;218;51.902;9.542;2022-09-09T11:06:25;3.63;;;1.77;;
462;SDS011;218;51.902;9.542;2022-09-09T11:08:57;1.70;;;1.60;;
462;SDS011;218;51.902;9.542;2022-09-09T11:11:28;3.97;;;1.70;;
462;SDS011;218;51.902;9.542;2022-09-09T11:13:59;1.50;;;1.40;;
462;SDS011;218;51.902;9.542;2022-09-09T11:16:35;2.03;;;1.60;;
462;SDS011;218;51.902;9.542;2022-09-09T11:19:10;1.13;;;1.03;;
462;SDS011;218;51.902;9.542;2022-09-09T11:21:42;1.57;;;1.33;;
462;SDS011;218;51.902;9.542;2022-09-09T11:24:13;2.23;;;1.40;;
462;SDS011;218;51.902;9.542;2022-09-09T11:26:45;2.43;;;1.53;;
462;SDS011;218;51.902;9.542;2022-09-09T11:29:20;1.23;;;1.23;;
462;SDS011;218;51.902;9.542;2022-09-09T11:32:03;1.73;;;1.37;;
462;SDS011;218;51.902;9.542;2022-09-09T11:34:46;1.60;;;1.50;;
462;SDS011;218;51.902;9.542;2022-09-09T11:40:30;1.33;;;1.10;;
462;SDS011;218;51.902;9.542;2022-09-09T11:43:03;1.53;;;1.43;;
462;SDS011;218;51.902;9.542;2022-09-09T11:45:35;3.00;;;1.50;;
462;SDS011;218;51.902;9.542;2022-09-09T11:48:04;1.67;;;1.50;;
462;SDS011;218;51.902;9.542;2022-09-09T11:50:35;2.20;;;1.73;;
462;SDS011;218;51.902;9.542;2022-09-09T11:53:04;1.57;;;1.47;;
462;SDS011;218;51.902;9.542;2022-09-09T11:55:59;2.27;;;1.30;;
462;SDS011;218;51.902;9.542;2022-09-09T11:58:39;2.40;;;1.50;;
462;SDS011;218;51.902;9.542;2022-09-09T12:01:15;2.10;;;1.27;;
462;SDS011;218;51.902;9.542;2022-09-09T12:03:59;1.40;;;1.20;;
462;SDS011;218;51.902;9.542;2022-09-09T12:06:41;2.67;;;1.17;;
462;SDS011;218;51.902;9.542;2022-09-09T12:09:16;1.40;;;1.20;;
462;SDS011;218;51.902;9.542;2022-09-09T12:12:04;0.80;;;0.80;;
462;SDS011;218;51.902;9.542;2022-09-09T12:14:35;1.50;;;1.23;;
462;SDS011;218;51.902;9.542;2022-09-09T12:17:09;2.07;;;1.20;;
462;SDS011;218;51.902;9.542;2022-09-09T12:19:59;1.83;;;1.73;;
462;SDS011;218;51.902;9.542;2022-09-09T12:22:33;3.37;;;1.50;;
462;SDS011;218;51.902;9.542;2022-09-09T12:25:08;1.77;;;1.00;;
462;SDS011;218;51.902;9.542;2022-09-09T12:27:43;2.40;;;1.27;;
462;SDS011;218;51.902;9.542;2022-09-09T12:30:15;1.20;;;1.00;;
462;SDS011;218;51.902;9.542;2022-09-09T12:32:44;2.20;;;1.50;;
462;SDS011;218;51.902;9.542;2022-09-09T12:35:13;1.27;;;1.17;;
462;SDS011;218;51.902;9.542;2022-09-09T12:37:47;2.53;;;1.37;;
462;SDS011;218;51.902;9.542;2022-09-09T12:40:20;2.13;;;1.07;;
462;SDS011;218;51.902;9.542;2022-09-09T12:42:49;2.33;;;1.50;;
462;SDS011;218;51.902;9.542;2022-09-09T12:45:17;2.00;;;1.27;;
462;SDS011;218;51.902;9.542;2022-09-09T12:47:46;1.53;;;1.43;;
462;SDS011;218;51.902;9.542;2022-09-09T12:50:17;1.73;;;1.50;;
462;SDS011;218;51.902;9.542;2022-09-09T12:52:47;1.50;;;1.40;;
462;SDS011;218;51.902;9.542;2022-09-09T12:55:17;1.30;;;1.20;;
462;SDS011;218;51.902;9.542;2022-09-09T12:57:46;1.43;;;1.27;;
462;SDS011;218;51.902;9.542;2022-09-09T13:00:17;1.50;;;1.27;;
462;SDS011;218;51.902;9.542;2022-09-09T13:02:47;2.40;;;1.27;;
462;SDS011;218;51.902;9.542;2022-09-09T13:05:19;1.90;;;1.63;;
462;SDS011;218;51.902;9.542;2022-09-09T13:08:00;1.80;;;1.37;;
462;SDS011;218;51.902;9.542;2022-09-09T13:10:53;1.33;;;1.23;;
462;SDS011;218;51.902;9.542;2022-09-09T13:13:26;1.63;;;1.50;;
462;SDS011;218;51.902;9.542;2022-09-09T13:15:56;1.63;;;1.40;;
462;SDS011;218;51.902;9.542;2022-09-09T13:18:25;3.23;;;1.63;;
462;SDS011;218;51.902;9.542;2022-09-09T13:20:55;1.30;;;1.20;;
462;SDS011;218;51.902;9.542;2022-09-09T13:23:25;1.57;;;1.00;;
462;SDS011;218;51.902;9.542;2022-09-09T13:25:55;1.53;;;1.43;;
462;SDS011;218;51.902;9.542;2022-09-09T13:28:23;3.53;;;1.40;;
462;SDS011;218;51.902;9.542;2022-09-09T13:30:58;3.80;;;1.20;;
462;SDS011;218;51.902;9.542;2022-09-09T13:33:30;2.00;;;1.50;;
462;SDS011;218;51.902;9.542;2022-09-09T13:36:04;1.43;;;1.33;;
462;SDS011;218;51.902;9.542;2022-09-09T13:38:35;2.37;;;1.70;;
462;SDS011;218;51.902;9.542;2022-09-09T13:41:04;2.30;;;1.37;;
462;SDS011;218;51.902;9.542;2022-09-09T13:43:34;1.77;;;1.30;;
462;SDS011;218;51.902;9.542;2022-09-09T13:46:05;3.47;;;1.37;;
462;SDS011;218;51.902;9.542;2022-09-09T13:48:53;1.40;;;1.30;;
462;SDS011;218;51.902;9.542;2022-09-09T13:51:29;1.00;;;1.00;;
462;SDS011;218;51.902;9.542;2022-09-09T13:54:00;2.20;;;1.13;;
462;SDS011;218;51.902;9.542;2022-09-09T13:56:27;1.20;;;1.10;;
462;SDS011;218;51.902;9.542;2022-09-09T13:58:54;2.27;;;1.40;;
462;SDS011;218;51.902;9.542;2022-09-09T14:01:22;2.07;;;1.40;;
462;SDS011;218;51.902;9.542;2022-09-09T14:03:49;1.50;;;1.23;;
462;SDS011;218;51.902;9.542;2022-09-09T14:06:18;1.40;;;1.30;;
462;SDS011;218;51.902;9.542;2022-09-09T14:08:48;2.20;;;1.20;;
462;SDS011;218;51.902;9.542;2022-09-09T14:11:16;2.73;;;1.30;;
462;SDS011;218;51.902;9.542;2022-09-09T14:13:43;1.53;;;1.13;;
462;SDS011;218;51.902;9.542;2022-09-09T14:16:10;1.20;;;1.10;;
462;SDS011;218;51.902;9.542;2022-09-09T14:18:37;1.93;;;1.10;;
462;SDS011;218;51.902;9.542;2022-09-09T14:21:04;1.53;;;1.00;;
462;SDS011;218;51.902;9.542;2022-09-09T14:23:31;0.97;;;0.87;;
462;SDS011;218;51.902;9.542;2022-09-09T14:25:59;2.13;;;1.30;;
462;SDS011;218;51.902;9.542;2022-09-09T14:28:26;2.20;;;1.20;;
462;SDS011;218;51.902;9.542;2022-09-09T14:30:54;2.03;;;1.30;;
462;SDS011;218;51.902;9.542;2022-09-09T14:33:21;1.40;;;1.07;;
462;SDS011;218;51.902;9.542;2022-09-09T14:35:48;1.53;;;1.20;;
462;SDS011;218;51.902;9.542;2022-09-09T14:38:22;1.40;;;1.30;;
462;SDS011;218;51.902;9.542;2022-09-09T14:40:49;2.80;;;1.60;;
462;SDS011;218;51.902;9.542;2022-09-09T14:43:17;4.07;;;1.70;;
462;SDS011;218;51.902;9.542;2022-09-09T14:45:45;2.23;;;1.20;;
462;SDS011;218;51.902;9.542;2022-09-09T14:48:13;3.10;;;1.30;;
462;SDS011;218;51.902;9.542;2022-09-09T14:50:40;1.67;;;1.20;;
462;SDS011;218;51.902;9.542;2022-09-09T14:53:07;1.33;;;1.17;;
462;SDS011;218;51.902;9.542;2022-09-09T14:55:35;2.13;;;1.53;;
462;SDS011;218;51.902;9.542;2022-09-09T14:58:02;2.20;;;1.60;;
462;SDS011;218;51.902;9.542;2022-09-09T15:00:32;2.50;;;1.30;;
462;SDS011;218;51.902;9.542;2022-09-09T15:02:59;1.70;;;1.50;;
462;SDS011;218;51.902;9.542;2022-09-09T15:05:26;2.60;;;1.43;;
462;SDS011;218;51.902;9.542;2022-09-09T15:07:53;1.93;;;1.20;;
462;SDS011;218;51.902;9.542;2022-09-09T15:10:20;1.50;;;1.40;;
462;SDS011;218;51.902;9.542;2022-09-09T15:12:47;2.60;;;1.43;;
462;SDS011;218;51.902;9.542;2022-09-09T15:15:14;1.43;;;1.33;;
462;SDS011;218;51.902;9.542;2022-09-09T15:17:43;1.20;;;1.10;;
462;SDS011;218;51.902;9.542;2022-09-09T15:20:10;1.93;;;1.20;;
462;SDS011;218;51.902;9.542;2022-09-09T15:22:37;1.20;;;1.10;;
462;SDS011;218;51.902;9.542;2022-09-09T15:25:05;2.23;;;1.20;;
462;SDS011;218;51.902;9.542;2022-09-09T15:27:33;2.23;;;1.07;;
462;SDS011;218;51.902;9.542;2022-09-09T15:30:00;2.10;;;1.30;;
462;SDS011;218;51.902;9.542;2022-09-09T15:32:49;1.87;;;1.40;;
462;SDS011;218;51.902;9.542;2022-09-09T15:35:33;1.20;;;1.10;;
462;SDS011;218;51.902;9.542;2022-09-09T15:38:01;1.30;;;1.17;;
462;SDS011;218;51.902;9.542;2022-09-09T15:40:30;2.40;;;1.00;;
462;SDS011;218;51.902;9.542;2022-09-09T15:42:57;1.97;;;1.10;;
462;SDS011;218;51.902;9.542;2022-09-09T15:45:24;2.97;;;1.43;;
462;SDS011;218;51.902;9.542;2022-09-09T15:47:53;1.13;;;0.80;;
462;SDS011;218;51.902;9.542;2022-09-09T15:50:20;1.17;;;0.80;;
462;SDS011;218;51.902;9.542;2022-09-09T15:52:47;1.03;;;0.87;;
462;SDS011;218;51.902;9.542;2022-09-09T15:55:14;1.67;;;1.00;;
462;SDS011;218;51.902;9.542;2022-09-09T15:57:41;1.40;;;1.30;;
462;SDS011;218;51.902;9.542;2022-09-09T16:00:08;1.93;;;1.10;;
462;SDS011;218;51.902;9.542;2022-09-09T16:02:38;2.00;;;1.20;;
462;SDS011;218;51.902;9.542;2022-09-09T16:05:07;1.23;;;1.00;;
462;SDS011;218;51.902;9.542;2022-09-09T16:07:34;2.70;;;1.23;;
462;SDS011;218;51.902;9.542;2022-09-09T16:10:01;1.30;;;1.20;;
462;SDS011;218;51.902;9.542;2022-09-09T16:12:28;1.03;;;1.03;;
462;SDS011;218;51.902;9.542;2022-09-09T16:14:55;1.20;;;1.10;;
462;SDS011;218;51.902;9.542;2022-09-09T16:17:22;1.17;;;1.00;;
462;SDS011;218;51.902;9.542;2022-09-09T16:19:49;1.43;;;1.27;;
462;SDS011;218;51.902;9.542;2022-09-09T16:22:18;2.70;;;1.13;;
462;SDS011;218;51.902;9.542;2022-09-09T16:24:47;0.80;;;0.80;;
462;SDS011;218;51.902;9.542;2022-09-09T16:27:14;1.00;;;0.90;;
462;SDS011;218;51.902;9.542;2022-09-09T16:29:41;1.63;;;1.03;;
462;SDS011;218;51.902;9.542;2022-09-09T16:32:08;5.53;;;1.10;;
462;SDS011;218;51.902;9.542;2022-09-09T16:34:35;1.40;;;1.20;;